Time;durP1;ratioP1;P1;durP2;ratioP2;P2;SDS_P1;SDS_P2;PMS_P1;PMS_P2;Temp;Humidity;BMP_temperature;BMP_pressure;BME280_temperature;BME280_humidity;BME280_pressure;Samples;Min_cycle;Max_cycle;Signal;HPM_P1;HPM_P2
2022/01/19 00:01:30;;;;;;;8.43;4.28;;;;;;;2.20;86.88;102544.94;4956263;29;20110;-71
2022/01/19 00:04:16;;;;;;;8.90;4.35;;;;;;;2.64;85.41;102546.88;4942675;29;20035;-72
2022/01/19 00:07:01;;;;;;;9.27;4.30;;;;;;;2.44;85.55;102547.72;4956255;28;20456;-71
2022/01/19 00:09:47;;;;;;;8.57;4.70;;;;;;;2.11;86.66;102549.69;4956890;29;20062;-71
2022/01/19 00:12:33;;;;;;;6.97;4.50;;;;;;;2.39;85.38;102560.47;4956733;29;20027;-71
2022/01/19 00:15:19;;;;;;;8.77;4.82;;;;;;;2.20;85.76;102555.28;4943009;28;20051;-71
2022/01/19 00:18:05;;;;;;;8.38;5.13;;;;;;;2.24;88.22;102574.38;4955853;29;20031;-70
2022/01/19 00:20:53;;;;;;;9.40;4.78;;;;;;;2.02;89.25;102576.81;4956528;29;20038;-70
2022/01/19 00:23:39;;;;;;;8.55;4.78;;;;;;;1.98;90.30;102573.22;4955703;29;20035;-71
2022/01/19 00:26:24;;;;;;;13.85;4.82;;;;;;;2.39;88.02;102575.09;4955829;28;20027;-71
2022/01/19 00:29:10;;;;;;;8.45;4.68;;;;;;;2.40;85.98;102572.56;4955921;29;20471;-72
2022/01/19 00:31:56;;;;;;;10.65;5.15;;;;;;;1.97;88.90;102583.47;4957870;28;20376;-70
2022/01/19 00:34:42;;;;;;;10.25;4.60;;;;;;;2.05;86.47;102582.13;4955722;29;20023;-70
2022/01/19 00:37:27;;;;;;;7.68;4.60;;;;;;;2.05;85.56;102572.66;4943282;29;20094;-71
2022/01/19 00:40:15;;;;;;;8.50;4.55;;;;;;;2.43;82.72;102575.31;4956048;29;20046;-71
2022/01/19 00:43:00;;;;;;;8.50;4.50;;;;;;;2.23;81.18;102580.38;4955550;29;20047;-71
2022/01/19 00:45:46;;;;;;;10.23;5.03;;;;;;;2.29;81.28;102586.72;4956080;28;20518;-70
2022/01/19 00:48:32;;;;;;;9.75;4.25;;;;;;;2.43;78.10;102577.88;4955293;29;20039;-70
2022/01/19 00:51:18;;;;;;;9.20;4.68;;;;;;;2.64;76.71;102575.34;4942182;29;20055;-71
2022/01/19 00:54:03;;;;;;;8.70;4.45;;;;;;;2.37;78.82;102577.59;4942362;29;20035;-71
2022/01/19 00:56:49;;;;;;;8.68;4.70;;;;;;;2.34;77.45;102571.41;4955675;28;20034;-72
2022/01/19 00:59:35;;;;;;;9.38;4.50;;;;;;;2.03;78.16;102576.88;4942035;29;20129;-72
2022/01/19 01:02:21;;;;;;;8.75;4.40;;;;;;;2.07;77.98;102571.06;4943372;29;20035;-70
2022/01/19 01:05:07;;;;;;;8.95;4.60;;;;;;;2.28;77.10;102573.72;4955187;29;20115;-70
2022/01/19 01:07:53;;;;;;;7.80;4.40;;;;;;;2.26;77.94;102573.66;4955628;29;20039;-71
2022/01/19 01:10:43;;;;;;;9.57;4.75;;;;;;;2.26;79.10;102578.84;4955299;29;20031;-71
2022/01/19 01:16:18;;;;;;;12.63;6.63;;;;;;;1.83;87.26;102576.75;4955527;28;20448;-71
2022/01/19 01:19:07;;;;;;;11.50;5.90;;;;;;;1.61;86.35;102566.25;4956084;29;20046;-71
2022/01/19 01:21:52;;;;;;;11.80;6.47;;;;;;;2.01;87.29;102568.16;4955411;29;20028;-71
2022/01/19 01:24:38;;;;;;;11.77;6.40;;;;;;;1.82;89.78;102569.84;4954884;29;20027;-71
2022/01/19 01:27:24;;;;;;;11.55;5.97;;;;;;;1.76;92.95;102562.66;4955162;28;20039;-72
2022/01/19 01:30:10;;;;;;;12.07;6.32;;;;;;;1.27;100.00;102562.81;4956232;29;20062;-70
2022/01/19 01:32:56;;;;;;;12.35;6.93;;;;;;;1.14;100.00;102570.78;4955802;29;20055;-71
2022/01/19 01:35:41;;;;;;;13.05;7.32;;;;;;;1.21;100.00;102571.19;4954904;28;20055;-71
2022/01/19 01:38:28;;;;;;;13.35;6.55;;;;;;;0.99;100.00;102559.69;4954946;29;20078;-71
2022/01/19 01:41:14;;;;;;;11.98;7.22;;;;;;;1.11;100.00;102557.72;4954855;29;20042;-71
2022/01/19 01:44:00;;;;;;;14.32;6.97;;;;;;;1.22;100.00;102554.88;4942722;29;20019;-72
2022/01/19 01:46:54;;;;;;;16.30;7.25;;;;;;;1.32;100.00;102566.53;4954849;28;20051;-71
2022/01/19 01:55:30;;;;;;;12.27;6.90;;;;;;;0.91;100.00;102579.94;4956828;28;20027;-71
2022/01/19 01:58:16;;;;;;;19.35;8.13;;;;;;;0.25;100.00;102588.44;4942347;29;20464;-70
2022/01/19 02:01:03;;;;;;;16.17;8.25;;;;;;;0.19;100.00;102591.56;4959141;29;20039;-71
2022/01/19 02:03:49;;;;;;;16.52;8.02;;;;;;;0.42;100.00;102590.22;4958682;29;20089;-70
2022/01/19 02:09:56;;;;;;;16.77;8.25;;;;;;;0.14;100.00;102593.03;4943384;29;20115;-71
2022/01/19 02:22:06;;;;;;;17.02;7.68;;;;;;;0.04;100.00;102573.59;4959395;28;20155;-71
2022/01/19 02:24:55;;;;;;;16.70;8.65;;;;;;;0.49;100.00;102571.69;4958240;29;20114;-71
2022/01/19 02:31:49;;;;;;;13.40;7.32;;;;;;;0.17;100.00;102581.19;4958532;29;20101;-71
2022/01/19 02:40:17;;;;;;;13.05;7.97;;;;;;;0.18;100.00;102594.97;4959678;28;20456;-71
2022/01/19 02:43:08;;;;;;;18.40;8.40;;;;;;;-0.27;100.00;102592.47;4958510;29;20042;-71
2022/01/19 02:51:42;;;;;;;16.05;8.13;;;;;;;0.27;100.00;102610.06;4958696;29;20130;-70
2022/01/19 02:54:29;;;;;;;13.50;8.20;;;;;;;0.24;100.00;102621.06;4958584;29;20020;-71
2022/01/19 02:57:16;;;;;;;19.73;8.38;;;;;;;0.34;100.00;102625.03;4958624;28;20161;-71
2022/01/19 03:08:42;;;;;;;16.30;8.27;;;;;;;-0.05;100.00;102622.06;4958683;28;20046;-71
2022/01/19 03:09:23;;;;;;;17.10;8.65;;;;;;;-0.09;100.00;102625.28;4958281;28;20031;-70
2022/01/19 03:12:09;;;;;;;19.63;8.80;;;;;;;0.12;100.00;102617.81;4958278;29;20035;-71
2022/01/19 03:14:56;;;;;;;19.35;8.75;;;;;;;0.19;100.00;102619.06;4957629;29;20046;-71
2022/01/19 03:17:42;;;;;;;15.80;8.65;;;;;;;0.15;100.00;102630.88;4958106;29;20204;-72
2022/01/19 03:20:29;;;;;;;19.17;8.52;;;;;;;0.29;100.00;102629.94;4944911;29;20106;-70
2022/01/19 03:23:18;;;;;;;15.25;8.07;;;;;;;0.27;100.00;102622.94;4944594;29;20114;-72
2022/01/19 03:26:06;;;;;;;14.65;8.00;;;;;;;0.41;100.00;102633.19;4957671;28;20035;-71
2022/01/19 03:28:52;;;;;;;20.13;8.90;;;;;;;0.76;100.00;102635.91;4956644;29;20045;-70
2022/01/19 03:31:38;;;;;;;15.45;8.15;;;;;;;0.53;100.00;102644.16;4958000;29;20033;-71
2022/01/19 03:34:24;;;;;;;16.17;8.48;;;;;;;0.23;100.00;102650.22;4956998;29;20424;-70
2022/01/19 03:37:11;;;;;;;15.48;7.97;;;;;;;0.17;100.00;102652.47;4957370;28;20030;-70
2022/01/19 03:39:56;;;;;;;14.13;8.00;;;;;;;0.19;100.00;102652.56;4956818;29;20046;-71
2022/01/19 03:42:43;;;;;;;16.25;8.27;;;;;;;-0.10;100.00;102646.69;4956683;29;20355;-71
2022/01/19 03:45:32;;;;;;;16.75;8.15;;;;;;;0.03;100.00;102651.72;4956944;28;20023;-71
2022/01/19 03:48:43;;;;;;;13.93;7.80;;;;;;;0.15;100.00;102646.34;4956138;29;20358;-70
2022/01/19 03:51:28;;;;;;;16.75;7.93;;;;;;;0.34;100.00;102653.38;4956909;29;20046;-71
2022/01/19 03:54:14;;;;;;;17.67;8.52;;;;;;;0.16;100.00;102657.53;4955274;29;20437;-70
2022/01/19 03:57:00;;;;;;;16.92;8.20;;;;;;;-0.18;100.00;102668.56;4942107;29;20031;-70
2022/01/19 03:59:46;;;;;;;13.43;7.57;;;;;;;-0.42;100.00;102666.25;4955267;29;20031;-71
2022/01/19 04:02:33;;;;;;;15.48;8.32;;;;;;;-0.43;100.00;102664.50;4956890;28;20456;-73
2022/01/19 04:05:27;;;;;;;16.27;7.88;;;;;;;-0.40;100.00;102667.25;4955315;28;20039;-70
2022/01/19 04:09:03;;;;;;;16.85;8.05;;;;;;;-0.41;100.00;102671.50;4956522;29;20096;-70
2022/01/19 04:11:50;;;;;;;15.10;8.35;;;;;;;-0.55;100.00;102679.22;4956345;29;20050;-71
2022/01/19 04:14:36;;;;;;;18.58;8.18;;;;;;;-0.56;100.00;102678.34;4942568;29;20033;-70
2022/01/19 04:17:22;;;;;;;16.92;8.68;;;;;;;-0.57;100.00;102685.97;4955798;28;20070;-71
2022/01/19 04:20:08;;;;;;;17.33;8.57;;;;;;;-0.71;100.00;102679.13;4942200;29;20027;-71
2022/01/19 04:22:55;;;;;;;14.55;8.38;;;;;;;-0.84;100.00;102674.94;4954967;29;20038;-71
2022/01/19 04:25:40;;;;;;;12.85;8.05;;;;;;;-0.73;100.00;102676.47;4955638;28;20066;-70
2022/01/19 04:28:26;;;;;;;14.13;7.80;;;;;;;-0.67;100.00;102675.94;4955189;29;20384;-70
2022/01/19 04:31:12;;;;;;;15.60;8.20;;;;;;;-0.86;100.00;102678.22;4941668;29;20042;-71
2022/01/19 04:34:02;;;;;;;16.02;8.23;;;;;;;-0.89;100.00;102680.59;4955212;29;20041;-72
2022/01/19 04:37:39;;;;;;;15.18;8.30;;;;;;;-0.84;100.00;102682.66;4954837;28;20478;-71
2022/01/19 05:07:37;;;;;;;16.23;9.13;;;;;;;-0.93;100.00;102696.66;4955852;28;20037;-72
2022/01/19 05:13:25;;;;;;;17.67;8.70;;;;;;;-0.97;100.00;102694.69;4956192;29;20440;-71
2022/01/19 05:16:11;;;;;;;18.08;8.32;;;;;;;-1.04;100.00;102700.28;4955746;28;20508;-72
2022/01/19 05:18:57;;;;;;;19.67;8.82;;;;;;;-0.94;100.00;102694.88;4942793;29;20031;-72
2022/01/19 05:21:43;;;;;;;17.63;8.57;;;;;;;-0.68;100.00;102702.47;4942071;29;20050;-71
2022/01/19 05:24:29;;;;;;;19.20;8.52;;;;;;;-0.70;100.00;102704.06;4954430;29;20043;-73
2022/01/19 05:27:16;;;;;;;16.65;8.85;;;;;;;-0.75;100.00;102701.25;4955347;28;20453;-72
2022/01/19 06:22:10;;;;;;;19.45;8.88;;;;;;;-0.68;100.00;102764.25;4957232;29;20070;-72
2022/01/19 06:24:57;;;;;;;21.55;9.55;;;;;;;-0.26;100.00;102764.19;4958883;29;20064;-74
2022/01/19 06:27:43;;;;;;;24.25;10.55;;;;;;;-0.25;100.00;102758.25;4940005;29;20440;-72
2022/01/19 06:30:29;;;;;;;24.60;9.95;;;;;;;0.07;100.00;102754.97;4937849;29;20035;-73
2022/01/19 06:33:39;;;;;;;22.40;11.05;;;;;;;0.04;100.00;102760.78;4940221;29;20428;-70
2022/01/19 06:36:24;;;;;;;22.33;10.95;;;;;;;0.12;100.00;102761.25;4938864;29;20073;-69
2022/01/19 06:39:10;;;;;;;21.38;10.65;;;;;;;0.24;100.00;102757.66;4939318;29;20365;-70
2022/01/19 06:41:56;;;;;;;25.55;13.40;;;;;;;0.55;100.00;102743.09;4939389;29;20047;-70
2022/01/19 06:44:42;;;;;;;25.45;12.40;;;;;;;0.22;100.00;102758.38;4937984;29;20508;-69
2022/01/19 06:47:28;;;;;;;35.75;15.23;;;;;;;-0.16;100.00;102769.09;4925329;29;20101;-71
2022/01/19 06:50:19;;;;;;;27.92;14.10;;;;;;;0.49;100.00;102758.25;4926101;29;20179;-71
2022/01/19 06:53:04;;;;;;;31.63;13.73;;;;;;;0.46;100.00;102747.75;4925506;29;20030;-70
2022/01/19 06:55:50;;;;;;;30.60;13.02;;;;;;;0.60;100.00;102759.69;4938999;29;20357;-71
2022/01/19 06:58:36;;;;;;;25.05;13.20;;;;;;;0.80;100.00;102745.31;4939617;29;20063;-71
2022/01/19 07:01:21;;;;;;;27.25;13.98;;;;;;;0.74;100.00;102751.03;4940201;28;20032;-70
2022/01/19 07:04:10;;;;;;;28.30;14.77;;;;;;;0.71;100.00;102748.28;4938163;29;20055;-70
2022/01/19 07:06:56;;;;;;;30.05;14.30;;;;;;;0.99;100.00;102763.53;4939406;29;20042;-71
2022/01/19 07:09:42;;;;;;;28.95;13.35;;;;;;;0.89;100.00;102761.28;4925250;29;20063;-70
2022/01/19 07:12:29;;;;;;;20.60;11.23;;;;;;;0.82;100.00;102764.34;4938226;29;20528;-71
2022/01/19 07:15:15;;;;;;;24.92;11.50;;;;;;;1.05;100.00;102761.31;4938175;29;20039;-71
2022/01/19 07:18:00;;;;;;;19.75;9.02;;;;;;;0.77;100.00;102756.38;4938530;29;20039;-68
2022/01/19 07:20:46;;;;;;;17.02;8.57;;;;;;;1.18;100.00;102758.56;4940306;29;20055;-68
2022/01/19 07:23:33;;;;;;;15.57;7.90;;;;;;;1.38;100.00;102753.63;4939139;29;20019;-70
2022/01/19 07:26:19;;;;;;;18.17;7.88;;;;;;;1.55;100.00;102762.25;4939945;28;20043;-69
2022/01/19 07:29:04;;;;;;;15.30;7.50;;;;;;;1.31;100.00;102766.13;4937908;29;20118;-70
2022/01/19 07:31:51;;;;;;;13.68;7.40;;;;;;;1.28;100.00;102766.00;4939381;29;20024;-68
2022/01/19 07:34:37;;;;;;;19.92;7.53;;;;;;;1.75;100.00;102762.44;4939645;29;20028;-70
2022/01/19 07:37:22;;;;;;;20.90;8.45;;;;;;;1.58;100.00;102759.81;4938843;29;20027;-70
2022/01/19 07:40:09;;;;;;;20.63;8.30;;;;;;;1.52;100.00;102770.72;4939469;29;20035;-70
2022/01/19 07:42:55;;;;;;;15.30;7.65;;;;;;;1.81;100.00;102755.00;4925683;29;20046;-71
2022/01/19 07:45:43;;;;;;;14.07;7.90;;;;;;;2.09;100.00;102763.28;4939458;29;20206;-71
2022/01/19 07:48:29;;;;;;;12.90;7.60;;;;;;;1.85;100.00;102759.50;4936807;29;20028;-70
2022/01/19 07:51:14;;;;;;;16.17;8.43;;;;;;;2.01;100.00;102754.28;4938489;29;20405;-70
2022/01/19 07:54:00;;;;;;;20.08;8.50;;;;;;;2.19;100.00;102755.19;4937774;29;20039;-70
2022/01/19 07:56:47;;;;;;;19.92;8.52;;;;;;;2.33;100.00;102746.38;4939799;29;20051;-70
2022/01/19 07:59:33;;;;;;;16.65;8.25;;;;;;;2.53;100.00;102743.03;4938411;29;20361;-72
2022/01/19 08:02:19;;;;;;;15.10;7.70;;;;;;;2.64;100.00;102744.44;4936899;29;20032;-70
2022/01/19 08:05:05;;;;;;;15.93;8.50;;;;;;;2.85;100.00;102744.56;4936850;29;20437;-71
2022/01/19 08:07:51;;;;;;;14.27;7.88;;;;;;;2.92;100.00;102744.91;4938274;29;20027;-70
2022/01/19 08:10:36;;;;;;;14.00;7.70;;;;;;;3.14;100.00;102742.44;4937611;29;20436;-70
2022/01/19 08:13:23;;;;;;;14.70;7.85;;;;;;;3.26;100.00;102753.34;4939099;29;20027;-71
2022/01/19 08:16:09;;;;;;;18.80;8.32;;;;;;;3.58;100.00;102757.34;4938082;29;20094;-70
2022/01/19 08:18:55;;;;;;;15.05;8.20;;;;;;;3.81;100.00;102760.09;4923958;29;20023;-71
2022/01/19 08:21:41;;;;;;;16.23;8.57;;;;;;;3.97;100.00;102757.31;4938487;29;20056;-71
2022/01/19 08:24:26;;;;;;;15.60;8.40;;;;;;;4.32;100.00;102759.66;4938212;29;20031;-71
2022/01/19 08:27:12;;;;;;;20.17;8.82;;;;;;;4.72;100.00;102764.69;4936195;29;20031;-70
2022/01/19 08:29:58;;;;;;;22.38;9.65;;;;;;;4.46;100.00;102763.66;4923181;29;20417;-71
2022/01/19 08:32:45;;;;;;;20.02;8.82;;;;;;;5.01;100.00;102761.47;4938396;29;20081;-71
2022/01/19 08:35:31;;;;;;;18.98;9.75;;;;;;;5.13;100.00;102764.53;4937758;29;20031;-70
2022/01/19 08:38:17;;;;;;;16.60;8.95;;;;;;;4.99;100.00;102753.63;4937065;29;20098;-70
2022/01/19 08:41:03;;;;;;;15.77;9.05;;;;;;;4.56;100.00;102750.25;4936727;29;20334;-71
2022/01/19 08:43:49;;;;;;;17.48;9.13;;;;;;;4.87;100.00;102754.91;4938034;28;20098;-70
2022/01/19 08:46:38;;;;;;;18.33;8.38;;;;;;;5.19;100.00;102749.19;4936892;29;20405;-71
2022/01/19 08:49:24;;;;;;;16.13;8.93;;;;;;;4.32;100.00;102738.91;4937448;29;20043;-70
2022/01/19 08:52:10;;;;;;;17.25;9.23;;;;;;;5.32;100.00;102748.78;4923999;29;20059;-70
2022/01/19 08:54:55;;;;;;;27.75;11.80;;;;;;;5.12;100.00;102745.47;4937262;29;20375;-71
2022/01/19 08:57:42;;;;;;;19.05;8.82;;;;;;;5.08;100.00;102750.50;4935800;29;20032;-71
2022/01/19 09:00:29;;;;;;;26.88;9.77;;;;;;;4.83;100.00;102734.84;4935998;29;20027;-71
2022/01/19 09:03:17;;;;;;;14.82;8.10;;;;;;;4.50;100.00;102736.09;4924324;29;20046;-70
2022/01/19 09:06:03;;;;;;;16.90;7.68;;;;;;;4.69;100.00;102736.91;4936772;29;20386;-70
2022/01/19 09:08:49;;;;;;;14.15;7.45;;;;;;;4.57;100.00;102730.34;4937397;29;20028;-68
2022/01/19 09:11:51;;;;;;;15.00;7.85;;;;;;;4.10;100.00;102741.44;4938016;29;20023;-70
2022/01/19 09:14:37;;;;;;;16.48;7.63;;;;;;;4.52;100.00;102734.47;4938038;29;20035;-71
2022/01/19 09:17:23;;;;;;;13.43;7.25;;;;;;;4.65;100.00;102723.72;4936401;29;20019;-71
2022/01/19 09:20:11;;;;;;;17.65;8.13;;;;;;;5.02;100.00;102726.88;4923387;29;20059;-71
2022/01/19 09:22:57;;;;;;;15.82;8.05;;;;;;;4.26;100.00;102710.09;4937408;29;20051;-70
2022/01/19 09:25:43;;;;;;;15.18;7.80;;;;;;;4.73;100.00;102701.53;4937457;29;20528;-72
2022/01/19 09:28:28;;;;;;;14.50;8.13;;;;;;;5.00;100.00;102698.28;4938853;29;20114;-70
2022/01/19 09:31:17;;;;;;;19.80;8.30;;;;;;;4.17;100.00;102690.69;4937860;29;20024;-70
2022/01/19 09:34:14;;;;;;;14.63;7.60;;;;;;;4.77;100.00;102686.16;4924239;29;20098;-71
2022/01/19 09:37:00;;;;;;;17.25;7.65;;;;;;;4.37;100.00;102677.69;4935360;29;20088;-71
2022/01/19 09:39:45;;;;;;;13.80;7.22;;;;;;;5.00;100.00;102679.19;4937397;29;20050;-69
2022/01/19 09:42:31;;;;;;;12.68;7.07;;;;;;;5.31;97.63;102669.06;4936879;29;20054;-70
2022/01/19 09:45:17;;;;;;;15.18;7.38;;;;;;;5.19;96.93;102674.69;4936975;29;20111;-71
2022/01/19 09:48:05;;;;;;;13.98;7.38;;;;;;;5.17;98.00;102676.38;4935988;29;20039;-71
2022/01/19 09:50:51;;;;;;;21.17;7.88;;;;;;;4.95;97.88;102673.81;4936436;29;20040;-71
2022/01/19 09:53:37;;;;;;;13.57;7.63;;;;;;;5.22;97.01;102669.63;4936072;29;20051;-70
2022/01/19 09:56:23;;;;;;;16.00;8.02;;;;;;;5.27;96.54;102670.66;4936672;29;20016;-70
2022/01/19 09:59:13;;;;;;;18.13;8.15;;;;;;;5.27;96.04;102670.66;4923370;29;20481;-71
2022/01/19 10:02:12;;;;;;;14.77;8.32;;;;;;;5.21;96.17;102669.56;4936114;29;20066;-71
2022/01/19 10:05:08;;;;;;;16.02;8.45;;;;;;;5.34;95.07;102669.16;4928731;29;20031;-71
2022/01/19 10:07:59;;;;;;;16.92;7.78;;;;;;;5.13;95.09;102663.22;4923829;29;20043;-70
2022/01/19 10:10:45;;;;;;;15.07;7.85;;;;;;;5.17;95.58;102655.59;4936650;29;20165;-70
2022/01/19 10:17:02;;;;;;;26.48;8.95;;;;;;;5.64;95.03;102652.00;4937007;29;20016;-70
2022/01/19 10:19:49;;;;;;;28.63;13.38;;;;;;;5.25;98.70;102648.03;4937158;29;20326;-70
2022/01/19 10:22:36;;;;;;;16.95;9.23;;;;;;;6.01;94.84;102644.59;4938642;29;20035;-70
2022/01/19 10:25:30;;;;;;;16.83;9.57;;;;;;;6.21;93.28;102638.28;4955611;23;20040;31
2022/01/19 10:28:16;;;;;;;15.23;7.95;;;;;;;5.43;94.31;102633.97;4919038;29;20048;-70
2022/01/19 10:31:02;;;;;;;12.73;7.70;;;;;;;5.50;95.76;102627.25;4921392;29;20368;-69
2022/01/19 10:34:19;;;;;;;14.07;8.13;;;;;;;6.06;94.23;102619.59;4921897;29;20047;-70
2022/01/19 10:37:06;;;;;;;14.18;7.95;;;;;;;5.94;93.20;102608.78;4893997;29;20331;-71
2022/01/19 10:39:54;;;;;;;15.43;8.90;;;;;;;6.18;93.69;102608.69;4902484;29;20043;-70
2022/01/19 10:42:40;;;;;;;13.70;6.75;;;;;;;5.28;95.29;102599.66;4901775;29;20469;-70
2022/01/19 10:45:32;;;;;;;17.02;6.90;;;;;;;5.77;96.66;102591.75;4902516;29;20454;-71
2022/01/19 10:48:32;;;;;;;11.27;5.78;;;;;;;6.33;92.26;102601.31;4902392;29;20038;-71
2022/01/19 10:51:20;;;;;;;11.52;5.63;;;;;;;6.39;90.41;102585.88;4901635;29;20029;-70
2022/01/19 10:54:19;;;;;;;12.45;5.93;;;;;;;6.18;88.30;102580.91;4901912;29;20389;-70
2022/01/19 10:57:15;;;;;;;14.85;8.02;;;;;;;6.38;90.03;102582.38;4902553;29;20033;-70
2022/01/19 11:00:10;;;;;;;12.23;4.95;;;;;;;6.53;79.74;102561.13;4901606;29;20049;-71
2022/01/19 11:03:12;;;;;;;7.53;4.20;;;;;;;6.62;79.95;102553.56;4901387;29;20437;-70
2022/01/19 11:06:00;;;;;;;8.07;4.72;;;;;;;6.72;75.55;102547.78;4901023;29;20040;-71
2022/01/19 11:08:48;;;;;;;8.50;4.43;;;;;;;6.74;72.13;102546.06;4902349;29;20099;-69
2022/01/19 11:11:34;;;;;;;13.52;5.22;;;;;;;6.71;70.58;102538.19;4901901;29;20036;-70
2022/01/19 11:14:23;;;;;;;11.73;5.78;;;;;;;7.10;70.50;102541.84;4901303;29;20494;-70
2022/01/19 11:17:12;;;;;;;10.88;5.75;;;;;;;7.34;69.01;102543.34;4901633;29;20454;-71
2022/01/19 11:20:03;;;;;;;12.40;6.22;;;;;;;7.08;67.09;102539.19;4888263;29;20037;-70
2022/01/19 11:23:07;;;;;;;17.17;10.55;;;;;;;7.37;66.83;102545.13;4887543;29;20035;-70
2022/01/19 11:26:07;;;;;;;11.63;5.25;;;;;;;7.15;67.13;102524.59;4905648;29;20047;-71
2022/01/19 11:28:53;;;;;;;12.23;5.28;;;;;;;7.33;65.50;102525.03;4918989;29;20110;-71
2022/01/19 11:31:39;;;;;;;11.38;5.85;;;;;;;7.16;67.89;102529.81;4919193;29;20035;-71
2022/01/19 11:34:39;;;;;;;12.07;5.93;;;;;;;6.97;68.78;102513.69;4919927;29;20097;-69
2022/01/19 11:37:33;;;;;;;10.80;5.78;;;;;;;7.24;68.43;102523.09;4920744;29;20460;-70
2022/01/19 11:40:19;;;;;;;9.63;4.82;;;;;;;7.18;68.60;102525.56;4919439;29;20032;-70
2022/01/19 11:43:28;;;;;;;10.15;5.00;;;;;;;7.53;66.60;102523.78;4920038;29;20365;-71
2022/01/19 11:46:34;;;;;;;8.70;5.05;;;;;;;7.91;65.44;102510.78;4919022;29;20028;-70
2022/01/19 11:49:48;;;;;;;11.73;5.22;;;;;;;7.53;65.24;102505.53;4919079;29;20043;-71
2022/01/19 11:52:35;;;;;;;10.68;5.05;;;;;;;7.33;67.24;102510.28;4919074;29;20043;-71
2022/01/19 11:55:25;;;;;;;10.55;5.00;;;;;;;7.60;67.07;102503.09;4918866;29;20417;-70
2022/01/19 11:58:13;;;;;;;8.35;4.80;;;;;;;7.77;66.54;102487.84;4905850;29;20028;-71
2022/01/19 12:00:59;;;;;;;8.85;4.78;;;;;;;7.99;64.86;102490.03;4920043;29;20107;-71
2022/01/19 12:03:45;;;;;;;7.38;4.00;;;;;;;8.07;61.00;102478.94;4905471;29;20025;-71
2022/01/19 12:06:33;;;;;;;10.10;4.68;;;;;;;8.27;59.81;102474.13;4919885;29;20040;-73
2022/01/19 12:09:19;;;;;;;9.82;4.85;;;;;;;8.30;60.33;102471.59;4919376;29;20032;-71
2022/01/19 12:12:14;;;;;;;8.32;4.50;;;;;;;8.46;59.51;102465.81;4919390;29;20087;-70
2022/01/19 12:15:05;;;;;;;7.97;4.60;;;;;;;8.04;59.93;102471.03;4919387;29;20020;-71
2022/01/19 12:17:57;;;;;;;6.68;4.45;;;;;;;7.92;60.54;102473.38;4919119;29;20035;-70
2022/01/19 12:20:45;;;;;;;10.68;5.30;;;;;;;7.50;61.77;102471.56;4905714;29;20043;-70
2022/01/19 12:23:34;;;;;;;11.07;6.75;;;;;;;7.87;61.11;102461.97;4918910;29;20086;-73
2022/01/19 12:26:20;;;;;;;7.72;4.47;;;;;;;7.41;61.18;102458.31;4920559;29;20048;-72
2022/01/19 12:29:06;;;;;;;10.77;5.45;;;;;;;7.30;61.66;102455.47;4918345;29;20349;-72
2022/01/19 12:31:52;;;;;;;10.50;5.80;;;;;;;7.41;61.58;102448.78;4919447;29;20047;-72
2022/01/19 12:34:44;;;;;;;13.55;6.53;;;;;;;7.64;61.98;102449.28;4918653;29;20087;-72
2022/01/19 12:37:40;;;;;;;12.00;5.85;;;;;;;7.56;61.95;102448.25;4918138;29;20028;-72
2022/01/19 12:40:29;;;;;;;13.95;5.65;;;;;;;7.40;63.75;102443.53;4917599;29;20039;-71
2022/01/19 12:43:36;;;;;;;10.02;5.95;;;;;;;7.38;64.17;102448.69;4918638;29;20104;-71
2022/01/19 12:46:37;;;;;;;10.98;5.70;;;;;;;7.57;63.71;102440.44;4918073;29;20359;-72
2022/01/19 12:49:28;;;;;;;10.68;5.93;;;;;;;7.61;63.63;102439.66;4918513;29;20035;-73
2022/01/19 12:52:15;;;;;;;11.77;5.18;;;;;;;7.41;60.35;102445.28;4918770;29;20028;-71
2022/01/19 12:55:19;;;;;;;10.20;5.05;;;;;;;7.03;59.04;102439.16;4918146;29;20422;-72
2022/01/19 12:58:15;;;;;;;9.57;4.72;;;;;;;7.20;59.67;102436.97;4917569;29;20040;-70
2022/01/19 13:01:06;;;;;;;15.40;6.97;;;;;;;6.51;62.45;102432.63;4918736;29;20043;-71
2022/01/19 13:03:52;;;;;;;11.57;5.75;;;;;;;7.20;62.51;102431.75;4918123;29;20038;-70
2022/01/19 13:06:38;;;;;;;11.32;5.85;;;;;;;6.97;62.96;102433.81;4918148;29;20031;-71
2022/01/19 13:09:35;;;;;;;8.18;4.97;;;;;;;7.13;63.22;102432.44;4917918;29;20032;-71
2022/01/19 13:12:32;;;;;;;8.45;5.93;;;;;;;6.91;65.00;102412.81;4918126;29;20032;-71
2022/01/19 13:15:18;;;;;;;10.02;5.93;;;;;;;7.40;64.81;102412.22;4920125;29;20028;-71
2022/01/19 13:18:04;;;;;;;10.40;5.93;;;;;;;6.88;65.34;102404.03;4903664;29;20076;-71
2022/01/19 13:20:52;;;;;;;9.95;5.07;;;;;;;6.77;66.14;102395.09;4919155;29;20028;-72
2022/01/19 13:24:15;;;;;;;13.10;6.05;;;;;;;6.92;65.91;102388.53;4918933;29;20040;-72
2022/01/19 13:27:04;;;;;;;9.70;5.20;;;;;;;7.00;65.57;102373.06;5238629;23;20152;-71
2022/01/19 13:29:50;;;;;;;12.10;5.45;;;;;;;6.75;65.05;102373.34;4942169;29;20058;-71
2022/01/19 13:32:38;;;;;;;11.18;5.47;;;;;;;6.35;66.71;102381.00;4942174;29;20039;-71
2022/01/19 13:35:27;;;;;;;10.55;5.68;;;;;;;6.52;68.55;102377.09;4956903;28;20035;-71
2022/01/19 13:38:13;;;;;;;12.02;6.15;;;;;;;6.56;68.66;102386.75;4955168;29;20360;-72
2022/01/19 13:41:17;;;;;;;8.38;5.28;;;;;;;6.46;69.72;102387.34;4955433;29;20102;-72
2022/01/19 13:44:07;;;;;;;10.85;5.70;;;;;;;6.35;70.14;102389.66;4942189;29;20034;-72
2022/01/19 13:47:27;;;;;;;12.35;6.20;;;;;;;6.51;71.06;102380.53;4954928;28;20027;-71
2022/01/19 13:50:13;;;;;;;9.85;5.53;;;;;;;6.25;71.24;102390.28;4956182;29;20094;-71
2022/01/19 13:53:00;;;;;;;7.57;5.00;;;;;;;6.15;70.74;102376.97;4955852;29;20057;-71
2022/01/19 13:55:45;;;;;;;13.25;5.70;;;;;;;6.15;69.53;102374.38;4958448;28;20069;-72
2022/01/19 13:58:42;;;;;;;10.07;6.18;;;;;;;6.07;69.07;102371.56;4945064;29;20361;-72
2022/01/19 14:04:58;;;;;;;9.77;5.60;;;;;;;6.03;70.05;102361.03;4892501;29;20082;-71
2022/01/19 14:07:46;;;;;;;14.85;6.10;;;;;;;5.96;69.30;102360.00;4958633;29;20368;-71
2022/01/19 14:10:49;;;;;;;10.57;5.68;;;;;;;6.05;70.05;102348.94;4959971;28;20050;-72
2022/01/19 14:13:37;;;;;;;12.52;7.82;;;;;;;6.11;70.71;102343.91;4958422;29;20031;-71
2022/01/19 14:16:26;;;;;;;13.82;6.50;;;;;;;6.26;71.06;102349.53;4959199;28;20077;-72
2022/01/19 14:19:13;;;;;;;11.82;6.68;;;;;;;6.19;71.49;102339.78;4958638;29;20066;-72
2022/01/19 14:22:13;;;;;;;13.30;7.03;;;;;;;6.22;70.70;102342.47;4959326;29;20041;-72
2022/01/19 14:25:07;;;;;;;16.23;7.90;;;;;;;6.12;71.96;102343.97;4958006;29;20027;-72
2022/01/19 14:27:56;;;;;;;16.02;7.45;;;;;;;6.03;72.84;102346.28;4958003;29;20452;-71
2022/01/19 14:30:42;;;;;;;16.30;8.48;;;;;;;6.22;72.63;102350.28;4957957;29;20090;-70
2022/01/19 14:33:28;;;;;;;12.95;7.68;;;;;;;6.04;72.52;102348.06;4944530;29;20385;-71
2022/01/19 14:36:22;;;;;;;15.98;7.65;;;;;;;6.11;72.50;102349.97;4958196;28;20035;-70
2022/01/19 14:39:08;;;;;;;17.83;8.32;;;;;;;5.82;73.92;102345.72;4944441;29;20444;-72
2022/01/19 14:42:07;;;;;;;19.63;9.43;;;;;;;5.84;74.57;102343.16;4945707;28;20062;-70
2022/01/19 14:47:44;;;;;;;15.48;7.75;;;;;;;5.91;73.30;102335.56;5498981;23;20051;-71
2022/01/19 14:50:34;;;;;;;14.85;7.00;;;;;;;5.69;74.38;102334.91;4958147;29;20042;-71
2022/01/19 14:53:21;;;;;;;16.77;7.90;;;;;;;5.80;73.68;102343.88;4958237;29;20031;-71
2022/01/19 14:56:07;;;;;;;17.77;7.68;;;;;;;5.51;75.53;102337.88;4958725;28;20023;-70
2022/01/19 14:59:20;;;;;;;15.60;7.38;;;;;;;5.65;75.71;102333.06;4957533;29;20035;-71
2022/01/19 15:02:06;;;;;;;13.00;7.25;;;;;;;5.46;76.98;102338.59;4958271;29;20038;-71
2022/01/19 15:07:46;;;;;;;14.73;7.82;;;;;;;5.77;76.17;102331.69;5524838;23;20531;-73
2022/01/19 15:10:33;;;;;;;15.90;7.95;;;;;;;5.86;75.87;102331.09;4958299;29;20444;-72
2022/01/19 15:13:19;;;;;;;14.60;8.27;;;;;;;5.71;77.54;102317.63;4957839;29;20117;-73
2022/01/19 15:16:06;;;;;;;16.17;8.82;;;;;;;5.94;76.91;102325.25;4945505;29;20105;-72
2022/01/19 15:18:52;;;;;;;15.82;9.18;;;;;;;5.77;77.40;102321.28;4957620;29;20081;-73
2022/01/19 15:21:38;;;;;;;20.13;10.02;;;;;;;5.74;77.19;102318.59;4957954;29;20026;-72